sensor_id;sensor_type;location;lat;lon;timestamp;pressure;altitude;pressure_sealevel;temperature;humidity
27294;BME280;14785;52.556;13.430;2022-09-17T00:01:18;99566.38;;;11.89;100.00
27294;BME280;14785;52.556;13.430;2022-09-17T00:03:47;99562.72;;;11.90;100.00
27294;BME280;14785;52.556;13.430;2022-09-17T00:06:13;99575.00;;;11.91;100.00
27294;BME280;14785;52.556;13.430;2022-09-17T00:08:40;99584.13;;;12.03;100.00
27294;BME280;14785;52.556;13.430;2022-09-17T00:11:12;99586.81;;;12.03;100.00
27294;BME280;14785;52.556;13.430;2022-09-17T00:13:38;99588.97;;;11.93;100.00
27294;BME280;14785;52.556;13.430;2022-09-17T00:16:04;99580.06;;;11.86;100.00
27294;BME280;14785;52.556;13.430;2022-09-17T00:18:29;99586.94;;;11.95;100.00
27294;BME280;14785;52.556;13.430;2022-09-17T00:20:54;99590.88;;;11.99;100.00
27294;BME280;14785;52.556;13.430;2022-09-17T00:23:20;99624.94;;;11.82;100.00
27294;BME280;14785;52.556;13.430;2022-09-17T00:25:45;99617.66;;;11.91;100.00
27294;BME280;14785;52.556;13.430;2022-09-17T00:28:12;99608.25;;;11.95;100.00
27294;BME280;14785;52.556;13.430;2022-09-17T00:30:41;99612.44;;;12.04;100.00
27294;BME280;14785;52.556;13.430;2022-09-17T00:33:09;99614.47;;;12.02;100.00
27294;BME280;14785;52.556;13.430;2022-09-17T00:35:36;99646.47;;;12.02;100.00
27294;BME280;14785;52.556;13.430;2022-09-17T00:38:01;99644.19;;;12.20;100.00
27294;BME280;14785;52.556;13.430;2022-09-17T00:40:27;99640.97;;;12.31;100.00
27294;BME280;14785;52.556;13.430;2022-09-17T00:42:52;99627.41;;;12.26;100.00
27294;BME280;14785;52.556;13.430;2022-09-17T00:45:18;99635.84;;;12.08;100.00
27294;BME280;14785;52.556;13.430;2022-09-17T00:47:56;99648.47;;;12.00;100.00
27294;BME280;14785;52.556;13.430;2022-09-17T00:50:33;99638.19;;;11.97;100.00
27294;BME280;14785;52.556;13.430;2022-09-17T00:53:20;99642.09;;;12.15;100.00
27294;BME280;14785;52.556;13.430;2022-09-17T00:55:52;99649.81;;;12.10;100.00
27294;BME280;14785;52.556;13.430;2022-09-17T00:58:20;99658.75;;;12.03;100.00
27294;BME280;14785;52.556;13.430;2022-09-17T01:00:47;99662.50;;;12.08;100.00
27294;BME280;14785;52.556;13.430;2022-09-17T01:03:12;99661.31;;;12.11;100.00
27294;BME280;14785;52.556;13.430;2022-09-17T01:14:18;99668.84;;;12.28;100.00
27294;BME280;14785;52.556;13.430;2022-09-17T01:22:58;99679.81;;;12.19;100.00
27294;BME280;14785;52.556;13.430;2022-09-17T01:28:25;99693.03;;;12.27;100.00
27294;BME280;14785;52.556;13.430;2022-09-17T01:31:01;99677.69;;;12.29;100.00
27294;BME280;14785;52.556;13.430;2022-09-17T01:33:49;99684.06;;;12.55;100.00
27294;BME280;14785;52.556;13.430;2022-09-17T01:36:45;99698.03;;;12.36;100.00
27294;BME280;14785;52.556;13.430;2022-09-17T01:39:23;99675.63;;;12.31;100.00
27294;BME280;14785;52.556;13.430;2022-09-17T01:44:49;99695.97;;;12.32;100.00
27294;BME280;14785;52.556;13.430;2022-09-17T01:47:37;99672.09;;;12.45;100.00
27294;BME280;14785;52.556;13.430;2022-09-17T01:50:06;99668.50;;;12.38;100.00
27294;BME280;14785;52.556;13.430;2022-09-17T01:52:35;99685.03;;;12.27;100.00
27294;BME280;14785;52.556;13.430;2022-09-17T01:55:08;99673.47;;;12.41;100.00
27294;BME280;14785;52.556;13.430;2022-09-17T01:57:39;99671.00;;;12.39;100.00
27294;BME280;14785;52.556;13.430;2022-09-17T02:00:11;99673.44;;;12.34;100.00
27294;BME280;14785;52.556;13.430;2022-09-17T02:02:42;99668.91;;;12.35;100.00
27294;BME280;14785;52.556;13.430;2022-09-17T02:08:28;99695.13;;;12.10;100.00
27294;BME280;14785;52.556;13.430;2022-09-17T02:11:17;99682.25;;;12.14;100.00
27294;BME280;14785;52.556;13.430;2022-09-17T02:13:55;99695.31;;;12.09;100.00
27294;BME280;14785;52.556;13.430;2022-09-17T02:16:31;99680.53;;;12.06;100.00
27294;BME280;14785;52.556;13.430;2022-09-17T02:26:49;99691.91;;;12.15;100.00
27294;BME280;14785;52.556;13.430;2022-09-17T02:29:32;99690.13;;;12.22;100.00
27294;BME280;14785;52.556;13.430;2022-09-17T02:31:58;99693.03;;;12.27;100.00
27294;BME280;14785;52.556;13.430;2022-09-17T02:34:24;99699.63;;;12.31;100.00
27294;BME280;14785;52.556;13.430;2022-09-17T02:36:52;99709.03;;;12.48;100.00
27294;BME280;14785;52.556;13.430;2022-09-17T02:39:17;99699.13;;;12.42;100.00
27294;BME280;14785;52.556;13.430;2022-09-17T02:57:59;99710.94;;;12.54;100.00
27294;BME280;14785;52.556;13.430;2022-09-17T03:00:28;99695.81;;;12.61;100.00
27294;BME280;14785;52.556;13.430;2022-09-17T03:05:24;99708.13;;;12.41;100.00
27294;BME280;14785;52.556;13.430;2022-09-17T03:07:50;99696.28;;;12.71;100.00
27294;BME280;14785;52.556;13.430;2022-09-17T03:10:16;99707.78;;;12.71;100.00
27294;BME280;14785;52.556;13.430;2022-09-17T03:12:42;99705.25;;;12.63;100.00
27294;BME280;14785;52.556;13.430;2022-09-17T03:15:08;99695.06;;;12.46;100.00
27294;BME280;14785;52.556;13.430;2022-09-17T03:17:33;99701.91;;;12.55;100.00
27294;BME280;14785;52.556;13.430;2022-09-17T03:19:59;99699.13;;;12.63;100.00
27294;BME280;14785;52.556;13.430;2022-09-17T03:22:24;99702.41;;;12.65;100.00
27294;BME280;14785;52.556;13.430;2022-09-17T03:24:50;99704.28;;;12.71;100.00
27294;BME280;14785;52.556;13.430;2022-09-17T03:27:15;99714.88;;;12.58;100.00
27294;BME280;14785;52.556;13.430;2022-09-17T03:29:41;99694.59;;;12.63;100.00
27294;BME280;14785;52.556;13.430;2022-09-17T03:32:06;99697.44;;;12.62;100.00
27294;BME280;14785;52.556;13.430;2022-09-17T03:34:32;99711.59;;;12.83;100.00
27294;BME280;14785;52.556;13.430;2022-09-17T03:36:58;99706.94;;;12.64;100.00
27294;BME280;14785;52.556;13.430;2022-09-17T03:39:23;99716.66;;;12.99;100.00
27294;BME280;14785;52.556;13.430;2022-09-17T03:41:48;99707.19;;;12.97;100.00
27294;BME280;14785;52.556;13.430;2022-09-17T03:44:14;99712.81;;;12.81;100.00
27294;BME280;14785;52.556;13.430;2022-09-17T03:46:40;99726.03;;;12.68;100.00
27294;BME280;14785;52.556;13.430;2022-09-17T03:49:05;99710.28;;;12.73;100.00
27294;BME280;14785;52.556;13.430;2022-09-17T03:51:30;99704.94;;;12.73;100.00
27294;BME280;14785;52.556;13.430;2022-09-17T03:53:56;99705.31;;;12.70;100.00
27294;BME280;14785;52.556;13.430;2022-09-17T03:56:21;99711.19;;;12.86;100.00
27294;BME280;14785;52.556;13.430;2022-09-17T03:58:46;99715.03;;;12.77;100.00
27294;BME280;14785;52.556;13.430;2022-09-17T04:01:12;99719.31;;;12.72;100.00
27294;BME280;14785;52.556;13.430;2022-09-17T04:03:37;99724.13;;;12.62;100.00
27294;BME280;14785;52.556;13.430;2022-09-17T04:06:03;99706.19;;;12.77;100.00
27294;BME280;14785;52.556;13.430;2022-09-17T04:08:28;99719.53;;;12.77;100.00
27294;BME280;14785;52.556;13.430;2022-09-17T04:10:53;99720.56;;;12.76;100.00
27294;BME280;14785;52.556;13.430;2022-09-17T04:13:19;99721.44;;;12.83;100.00
27294;BME280;14785;52.556;13.430;2022-09-17T04:15:45;99722.19;;;12.77;100.00
27294;BME280;14785;52.556;13.430;2022-09-17T04:18:11;99722.56;;;12.67;100.00
27294;BME280;14785;52.556;13.430;2022-09-17T04:20:36;99727.25;;;13.14;100.00
27294;BME280;14785;52.556;13.430;2022-09-17T04:23:02;99715.69;;;12.86;100.00
27294;BME280;14785;52.556;13.430;2022-09-17T04:25:27;99730.06;;;12.85;100.00
27294;BME280;14785;52.556;13.430;2022-09-17T04:27:53;99725.22;;;12.95;100.00
27294;BME280;14785;52.556;13.430;2022-09-17T04:30:18;99719.97;;;13.01;100.00
27294;BME280;14785;52.556;13.430;2022-09-17T04:32:44;99721.16;;;12.99;100.00
27294;BME280;14785;52.556;13.430;2022-09-17T04:35:09;99721.94;;;12.93;100.00
27294;BME280;14785;52.556;13.430;2022-09-17T04:37:35;99723.00;;;12.98;100.00
27294;BME280;14785;52.556;13.430;2022-09-17T04:40:01;99723.19;;;12.97;100.00
27294;BME280;14785;52.556;13.430;2022-09-17T04:42:27;99726.75;;;12.83;100.00
27294;BME280;14785;52.556;13.430;2022-09-17T04:44:52;99725.22;;;12.95;100.00
27294;BME280;14785;52.556;13.430;2022-09-17T04:47:17;99718.75;;;13.04;100.00
27294;BME280;14785;52.556;13.430;2022-09-17T04:49:43;99725.38;;;13.08;100.00
27294;BME280;14785;52.556;13.430;2022-09-17T04:52:08;99718.19;;;12.87;100.00
27294;BME280;14785;52.556;13.430;2022-09-17T04:54:33;99715.47;;;13.02;100.00
27294;BME280;14785;52.556;13.430;2022-09-17T04:56:59;99719.38;;;13.06;100.00
27294;BME280;14785;52.556;13.430;2022-09-17T04:59:24;99709.53;;;13.06;100.00
27294;BME280;14785;52.556;13.430;2022-09-17T05:01:50;99723.19;;;12.97;100.00
27294;BME280;14785;52.556;13.430;2022-09-17T05:04:15;99719.00;;;12.88;100.00
27294;BME280;14785;52.556;13.430;2022-09-17T05:06:40;99717.19;;;13.16;100.00
27294;BME280;14785;52.556;13.430;2022-09-17T05:09:06;99724.03;;;12.97;100.00
27294;BME280;14785;52.556;13.430;2022-09-17T05:11:31;99723.19;;;12.97;100.00
27294;BME280;14785;52.556;13.430;2022-09-17T05:13:57;99722.16;;;12.98;100.00
27294;BME280;14785;52.556;13.430;2022-09-17T05:16:22;99725.50;;;12.79;100.00
27294;BME280;14785;52.556;13.430;2022-09-17T05:18:47;99719.47;;;12.91;100.00
27294;BME280;14785;52.556;13.430;2022-09-17T05:21:15;99725.00;;;12.90;100.00
27294;BME280;14785;52.556;13.430;2022-09-17T05:23:40;99727.66;;;12.90;100.00
27294;BME280;14785;52.556;13.430;2022-09-17T05:26:05;99729.69;;;12.88;100.00
27294;BME280;14785;52.556;13.430;2022-09-17T05:28:31;99731.38;;;12.95;100.00
27294;BME280;14785;52.556;13.430;2022-09-17T05:30:59;99735.97;;;13.01;100.00
27294;BME280;14785;52.556;13.430;2022-09-17T05:33:24;99738.94;;;13.13;100.00
27294;BME280;14785;52.556;13.430;2022-09-17T05:35:50;99741.06;;;13.24;100.00
27294;BME280;14785;52.556;13.430;2022-09-17T05:38:15;99739.69;;;13.00;100.00
27294;BME280;14785;52.556;13.430;2022-09-17T05:40:42;99742.69;;;13.18;100.00
27294;BME280;14785;52.556;13.430;2022-09-17T05:43:08;99737.44;;;13.38;100.00
27294;BME280;14785;52.556;13.430;2022-09-17T05:45:35;99736.66;;;13.44;100.00
27294;BME280;14785;52.556;13.430;2022-09-17T05:48:03;99746.34;;;13.45;100.00
27294;BME280;14785;52.556;13.430;2022-09-17T05:50:29;99745.97;;;13.20;100.00
27294;BME280;14785;52.556;13.430;2022-09-17T05:52:55;99744.00;;;13.29;100.00
27294;BME280;14785;52.556;13.430;2022-09-17T05:55:22;99753.56;;;13.51;100.00
27294;BME280;14785;52.556;13.430;2022-09-17T05:57:48;99746.09;;;13.40;100.00
27294;BME280;14785;52.556;13.430;2022-09-17T06:00:14;99750.66;;;13.12;100.00
27294;BME280;14785;52.556;13.430;2022-09-17T06:02:40;99749.72;;;13.26;100.00
27294;BME280;14785;52.556;13.430;2022-09-17T06:05:05;99753.91;;;13.41;100.00
27294;BME280;14785;52.556;13.430;2022-09-17T06:07:34;99752.00;;;13.63;100.00
27294;BME280;14785;52.556;13.430;2022-09-17T06:09:59;99741.22;;;13.50;100.00
27294;BME280;14785;52.556;13.430;2022-09-17T06:12:24;99748.94;;;13.32;100.00
27294;BME280;14785;52.556;13.430;2022-09-17T06:14:50;99783.72;;;13.11;100.00
27294;BME280;14785;52.556;13.430;2022-09-17T06:17:15;99754.69;;;13.29;100.00
27294;BME280;14785;52.556;13.430;2022-09-17T06:19:40;99767.13;;;13.15;100.00
27294;BME280;14785;52.556;13.430;2022-09-17T06:22:06;99755.75;;;13.41;100.00
27294;BME280;14785;52.556;13.430;2022-09-17T06:24:31;99766.06;;;13.78;100.00
27294;BME280;14785;52.556;13.430;2022-09-17T06:26:57;99759.75;;;13.24;100.00
27294;BME280;14785;52.556;13.430;2022-09-17T06:29:22;99752.84;;;13.70;100.00
27294;BME280;14785;52.556;13.430;2022-09-17T06:31:48;99760.16;;;13.55;100.00
27294;BME280;14785;52.556;13.430;2022-09-17T06:34:13;99766.16;;;13.29;100.00
27294;BME280;14785;52.556;13.430;2022-09-17T06:36:39;99764.41;;;13.43;100.00
27294;BME280;14785;52.556;13.430;2022-09-17T06:39:05;99762.38;;;13.45;100.00
27294;BME280;14785;52.556;13.430;2022-09-17T06:41:30;99773.84;;;13.39;100.00
27294;BME280;14785;52.556;13.430;2022-09-17T06:43:56;99760.31;;;13.81;100.00
27294;BME280;14785;52.556;13.430;2022-09-17T06:46:21;99755.66;;;13.56;100.00
27294;BME280;14785;52.556;13.430;2022-09-17T06:48:46;99762.97;;;13.47;100.00
27294;BME280;14785;52.556;13.430;2022-09-17T06:51:12;99759.22;;;13.35;100.00
27294;BME280;14785;52.556;13.430;2022-09-17T06:53:39;99755.53;;;13.36;100.00
27294;BME280;14785;52.556;13.430;2022-09-17T06:56:06;99761.19;;;13.20;100.00
27294;BME280;14785;52.556;13.430;2022-09-17T06:58:35;99761.00;;;13.62;100.00
27294;BME280;14785;52.556;13.430;2022-09-17T07:01:02;99760.09;;;13.42;100.00
27294;BME280;14785;52.556;13.430;2022-09-17T07:03:28;99757.56;;;13.34;100.00
27294;BME280;14785;52.556;13.430;2022-09-17T07:05:53;99754.56;;;13.43;100.00
27294;BME280;14785;52.556;13.430;2022-09-17T07:08:19;99764.97;;;13.32;100.00
27294;BME280;14785;52.556;13.430;2022-09-17T07:10:44;99762.06;;;13.27;100.00
27294;BME280;14785;52.556;13.430;2022-09-17T07:13:09;99773.91;;;13.52;100.00
27294;BME280;14785;52.556;13.430;2022-09-17T07:15:35;99755.34;;;13.10;100.00
27294;BME280;14785;52.556;13.430;2022-09-17T07:18:07;99754.19;;;13.53;100.00
27294;BME280;14785;52.556;13.430;2022-09-17T07:20:32;99760.03;;;13.29;100.00
27294;BME280;14785;52.556;13.430;2022-09-17T07:22:57;99751.91;;;13.50;100.00
27294;BME280;14785;52.556;13.430;2022-09-17T07:25:24;99756.91;;;13.60;100.00
27294;BME280;14785;52.556;13.430;2022-09-17T07:27:50;99756.16;;;13.79;100.00
27294;BME280;14785;52.556;13.430;2022-09-17T07:30:16;99744.59;;;14.12;100.00
27294;BME280;14785;52.556;13.430;2022-09-17T07:32:41;99756.00;;;13.46;100.00
27294;BME280;14785;52.556;13.430;2022-09-17T07:35:07;99744.13;;;13.55;100.00
27294;BME280;14785;52.556;13.430;2022-09-17T07:37:32;99767.94;;;13.50;100.00
27294;BME280;14785;52.556;13.430;2022-09-17T07:39:58;99749.53;;;13.62;100.00
27294;BME280;14785;52.556;13.430;2022-09-17T07:42:23;99741.47;;;14.02;100.00
27294;BME280;14785;52.556;13.430;2022-09-17T07:44:49;99739.59;;;13.96;100.00
27294;BME280;14785;52.556;13.430;2022-09-17T07:47:14;99724.81;;;14.00;100.00
27294;BME280;14785;52.556;13.430;2022-09-17T07:49:40;99743.00;;;13.71;100.00
27294;BME280;14785;52.556;13.430;2022-09-17T07:52:05;99721.56;;;13.64;100.00
27294;BME280;14785;52.556;13.430;2022-09-17T07:54:34;99728.25;;;13.81;100.00
27294;BME280;14785;52.556;13.430;2022-09-17T07:57:01;99728.09;;;13.55;100.00
27294;BME280;14785;52.556;13.430;2022-09-17T07:59:27;99734.53;;;13.67;100.00
27294;BME280;14785;52.556;13.430;2022-09-17T08:01:52;99731.41;;;13.57;100.00
27294;BME280;14785;52.556;13.430;2022-09-17T08:04:18;99736.81;;;13.70;100.00
27294;BME280;14785;52.556;13.430;2022-09-17T08:06:43;99733.19;;;13.84;100.00
27294;BME280;14785;52.556;13.430;2022-09-17T08:09:12;99732.41;;;13.56;100.00
27294;BME280;14785;52.556;13.430;2022-09-17T08:11:39;99738.44;;;13.71;100.00
27294;BME280;14785;52.556;13.430;2022-09-17T08:14:04;99740.56;;;13.82;100.00
27294;BME280;14785;52.556;13.430;2022-09-17T08:16:30;99726.44;;;14.01;100.00
27294;BME280;14785;52.556;13.430;2022-09-17T08:18:56;99725.47;;;14.15;100.00
27294;BME280;14785;52.556;13.430;2022-09-17T08:21:22;99732.44;;;14.16;100.00
27294;BME280;14785;52.556;13.430;2022-09-17T08:23:48;99731.94;;;13.87;100.00
27294;BME280;14785;52.556;13.430;2022-09-17T08:26:14;99740.41;;;13.90;100.00
27294;BME280;14785;52.556;13.430;2022-09-17T08:28:42;99712.56;;;14.25;100.00
27294;BME280;14785;52.556;13.430;2022-09-17T08:31:13;99724.22;;;14.11;100.00
27294;BME280;14785;52.556;13.430;2022-09-17T08:33:39;99723.75;;;13.95;100.00
27294;BME280;14785;52.556;13.430;2022-09-17T08:36:06;99701.25;;;14.23;100.00
27294;BME280;14785;52.556;13.430;2022-09-17T08:38:33;99695.00;;;14.16;100.00
27294;BME280;14785;52.556;13.430;2022-09-17T08:41:08;99698.38;;;14.25;100.00
27294;BME280;14785;52.556;13.430;2022-09-17T08:46:18;99679.03;;;14.36;100.00
27294;BME280;14785;52.556;13.430;2022-09-17T08:48:53;99687.25;;;14.34;100.00
27294;BME280;14785;52.556;13.430;2022-09-17T08:56:41;99729.06;;;13.88;100.00
27294;BME280;14785;52.556;13.430;2022-09-17T08:59:49;99686.59;;;14.19;100.00
27294;BME280;14785;52.556;13.430;2022-09-17T09:07:25;99690.78;;;14.93;100.00
27294;BME280;14785;52.556;13.430;2022-09-17T09:10:10;99700.84;;;14.52;100.00
27294;BME280;14785;52.556;13.430;2022-09-17T09:12:37;99685.22;;;14.49;100.00
27294;BME280;14785;52.556;13.430;2022-09-17T09:15:14;99691.78;;;14.92;100.00
27294;BME280;14785;52.556;13.430;2022-09-17T09:17:43;99717.13;;;14.70;100.00
27294;BME280;14785;52.556;13.430;2022-09-17T09:20:30;99714.44;;;14.44;100.00
27294;BME280;14785;52.556;13.430;2022-09-17T09:23:13;99735.88;;;14.70;100.00
27294;BME280;14785;52.556;13.430;2022-09-17T09:25:51;99711.16;;;14.62;100.00
27294;BME280;14785;52.556;13.430;2022-09-17T09:28:45;99695.84;;;15.34;100.00
27294;BME280;14785;52.556;13.430;2022-09-17T09:34:08;99715.06;;;14.98;100.00
27294;BME280;14785;52.556;13.430;2022-09-17T09:36:37;99710.31;;;15.13;100.00
27294;BME280;14785;52.556;13.430;2022-09-17T09:39:15;99716.09;;;14.97;100.00
27294;BME280;14785;52.556;13.430;2022-09-17T09:41:51;99723.31;;;15.03;100.00
27294;BME280;14785;52.556;13.430;2022-09-17T09:44:18;99733.41;;;14.75;100.00
27294;BME280;14785;52.556;13.430;2022-09-17T09:49:50;99727.63;;;14.65;100.00
27294;BME280;14785;52.556;13.430;2022-09-17T09:52:52;99725.34;;;14.49;100.00
27294;BME280;14785;52.556;13.430;2022-09-17T09:55:59;99728.25;;;14.80;100.00
27294;BME280;14785;52.556;13.430;2022-09-17T09:58:41;99706.63;;;14.95;100.00
27294;BME280;14785;52.556;13.430;2022-09-17T10:03:39;99738.34;;;14.78;100.00
27294;BME280;14785;52.556;13.430;2022-09-17T10:06:07;99733.38;;;14.36;100.00
27294;BME280;14785;52.556;13.430;2022-09-17T10:11:24;99744.41;;;14.20;100.00
27294;BME280;14785;52.556;13.430;2022-09-17T10:13:49;99759.47;;;14.34;100.00
27294;BME280;14785;52.556;13.430;2022-09-17T10:16:26;99736.91;;;14.69;100.00
27294;BME280;14785;52.556;13.430;2022-09-17T10:19:12;99747.81;;;15.13;100.00
27294;BME280;14785;52.556;13.430;2022-09-17T10:21:40;99740.56;;;15.47;100.00
27294;BME280;14785;52.556;13.430;2022-09-17T10:26:47;99731.97;;;15.95;100.00
27294;BME280;14785;52.556;13.430;2022-09-17T10:29:17;99719.91;;;16.48;100.00
27294;BME280;14785;52.556;13.430;2022-09-17T10:31:52;99724.97;;;15.88;100.00
27294;BME280;14785;52.556;13.430;2022-09-17T10:34:30;99728.09;;;15.85;100.00
27294;BME280;14785;52.556;13.430;2022-09-17T10:36:57;99723.91;;;15.18;100.00
27294;BME280;14785;52.556;13.430;2022-09-17T10:41:54;99782.47;;;13.41;100.00
27294;BME280;14785;52.556;13.430;2022-09-17T10:44:22;99800.38;;;13.47;100.00
27294;BME280;14785;52.556;13.430;2022-09-17T10:46:49;99792.78;;;13.16;100.00
27294;BME280;14785;52.556;13.430;2022-09-17T10:52:24;99798.53;;;13.75;100.00
27294;BME280;14785;52.556;13.430;2022-09-17T11:00:19;99794.38;;;15.06;100.00
27294;BME280;14785;52.556;13.430;2022-09-17T11:11:46;99807.28;;;14.57;100.00
27294;BME280;14785;52.556;13.430;2022-09-17T11:19:57;99773.38;;;15.16;100.00
27294;BME280;14785;52.556;13.430;2022-09-17T11:28:08;99748.16;;;15.63;100.00
27294;BME280;14785;52.556;13.430;2022-09-17T11:30:52;99741.19;;;15.36;100.00
27294;BME280;14785;52.556;13.430;2022-09-17T11:36:01;99733.81;;;15.88;100.00
27294;BME280;14785;52.556;13.430;2022-09-17T11:38:44;99731.91;;;16.02;100.00
27294;BME280;14785;52.556;13.430;2022-09-17T11:41:19;99776.00;;;14.64;100.00
27294;BME280;14785;52.556;13.430;2022-09-17T11:44:11;99793.78;;;13.43;100.00
27294;BME280;14785;52.556;13.430;2022-09-17T11:47:26;99774.69;;;13.12;100.00
27294;BME280;14785;52.556;13.430;2022-09-17T11:49:40;99789.56;;;13.00;100.00
27294;BME280;14785;52.556;13.430;2022-09-17T11:52:18;99785.06;;;13.28;100.00
27294;BME280;14785;52.556;13.430;2022-09-17T11:54:48;99791.25;;;13.35;100.00
27294;BME280;14785;52.556;13.430;2022-09-17T11:57:33;99781.59;;;13.68;100.00
27294;BME280;14785;52.556;13.430;2022-09-17T12:00:12;99781.84;;;14.20;100.00
27294;BME280;14785;52.556;13.430;2022-09-17T12:05:34;99768.00;;;14.83;100.00
27294;BME280;14785;52.556;13.430;2022-09-17T12:08:21;99772.94;;;14.80;100.00
27294;BME280;14785;52.556;13.430;2022-09-17T12:10:51;99758.53;;;15.40;100.00
27294;BME280;14785;52.556;13.430;2022-09-17T12:13:51;99754.81;;;15.14;100.00
27294;BME280;14785;52.556;13.430;2022-09-17T12:16:23;99744.88;;;15.34;100.00
27294;BME280;14785;52.556;13.430;2022-09-17T12:22:24;99758.53;;;15.00;100.00
27294;BME280;14785;52.556;13.430;2022-09-17T12:24:51;99746.59;;;15.09;100.00
27294;BME280;14785;52.556;13.430;2022-09-17T12:27:37;99715.97;;;15.63;100.00
27294;BME280;14785;52.556;13.430;2022-09-17T12:30:11;99718.72;;;15.30;100.00
27294;BME280;14785;52.556;13.430;2022-09-17T12:52:58;99684.63;;;16.45;100.00
27294;BME280;14785;52.556;13.430;2022-09-17T12:55:32;99731.63;;;15.66;100.00
27294;BME280;14785;52.556;13.430;2022-09-17T13:01:16;99677.50;;;17.06;100.00
27294;BME280;14785;52.556;13.430;2022-09-17T13:03:47;99693.34;;;16.03;100.00
27294;BME280;14785;52.556;13.430;2022-09-17T13:07:05;99720.03;;;15.85;100.00
27294;BME280;14785;52.556;13.430;2022-09-17T13:12:43;99658.19;;;15.80;100.00
27294;BME280;14785;52.556;13.430;2022-09-17T13:15:32;99684.69;;;16.32;100.00
27294;BME280;14785;52.556;13.430;2022-09-17T13:18:16;99676.47;;;16.82;100.00
27294;BME280;14785;52.556;13.430;2022-09-17T13:21:01;99682.53;;;16.47;100.00
27294;BME280;14785;52.556;13.430;2022-09-17T13:26:01;99669.69;;;16.80;100.00
27294;BME280;14785;52.556;13.430;2022-09-17T13:28:46;99682.53;;;16.47;100.00
27294;BME280;14785;52.556;13.430;2022-09-17T13:31:18;99674.19;;;17.04;100.00
27294;BME280;14785;52.556;13.430;2022-09-17T13:38:57;99669.38;;;16.70;100.00
27294;BME280;14785;52.556;13.430;2022-09-17T13:41:24;99670.91;;;17.02;100.00
27294;BME280;14785;52.556;13.430;2022-09-17T13:43:51;99664.66;;;16.65;100.00
27294;BME280;14785;52.556;13.430;2022-09-17T13:46:23;99679.31;;;17.30;100.00
27294;BME280;14785;52.556;13.430;2022-09-17T13:48:53;99671.03;;;16.89;100.00
27294;BME280;14785;52.556;13.430;2022-09-17T13:54:01;99655.00;;;17.61;100.00
27294;BME280;14785;52.556;13.430;2022-09-17T13:56:37;99663.63;;;17.63;100.00
27294;BME280;14785;52.556;13.430;2022-09-17T13:59:23;99656.56;;;16.90;100.00
27294;BME280;14785;52.556;13.430;2022-09-17T14:09:58;99680.03;;;16.52;100.00
27294;BME280;14785;52.556;13.430;2022-09-17T14:17:59;99679.00;;;17.38;100.00
27294;BME280;14785;52.556;13.430;2022-09-17T14:20:26;99674.22;;;16.55;100.00
27294;BME280;14785;52.556;13.430;2022-09-17T14:22:59;99655.47;;;17.15;100.00
27294;BME280;14785;52.556;13.430;2022-09-17T14:25:35;99662.19;;;17.43;100.00
27294;BME280;14785;52.556;13.430;2022-09-17T14:28:13;99673.78;;;17.25;100.00
27294;BME280;14785;52.556;13.430;2022-09-17T14:30:43;99671.00;;;16.40;100.00
27294;BME280;14785;52.556;13.430;2022-09-17T14:33:24;99672.13;;;16.57;100.00
27294;BME280;14785;52.556;13.430;2022-09-17T14:36:00;99726.69;;;16.51;100.00
27294;BME280;14785;52.556;13.430;2022-09-17T14:41:05;99732.94;;;16.01;100.00
27294;BME280;14785;52.556;13.430;2022-09-17T14:48:45;99692.19;;;15.86;100.00
27294;BME280;14785;52.556;13.430;2022-09-17T14:53:45;99676.06;;;15.42;100.00
27294;BME280;14785;52.556;13.430;2022-09-17T14:56:17;99683.50;;;15.20;100.00
27294;BME280;14785;52.556;13.430;2022-09-17T14:58:50;99689.16;;;15.69;100.00
27294;BME280;14785;52.556;13.430;2022-09-17T15:01:29;99683.50;;;15.40;100.00
27294;BME280;14785;52.556;13.430;2022-09-17T15:06:39;99720.22;;;15.00;100.00
27294;BME280;14785;52.556;13.430;2022-09-17T15:09:04;99687.31;;;15.70;100.00
27294;BME280;14785;52.556;13.430;2022-09-17T15:11:34;99687.13;;;15.65;100.00
27294;BME280;14785;52.556;13.430;2022-09-17T15:14:05;99675.84;;;15.94;100.00
27294;BME280;14785;52.556;13.430;2022-09-17T15:16:35;99682.28;;;17.22;100.00
27294;BME280;14785;52.556;13.430;2022-09-17T15:19:01;99679.72;;;15.54;100.00
27294;BME280;14785;52.556;13.430;2022-09-17T15:21:35;99672.03;;;14.93;100.00
27294;BME280;14785;52.556;13.430;2022-09-17T15:26:58;99686.44;;;15.05;100.00
27294;BME280;14785;52.556;13.430;2022-09-17T15:29:28;99670.78;;;14.89;100.00
27294;BME280;14785;52.556;13.430;2022-09-17T15:31:55;99744.09;;;14.62;100.00
27294;BME280;14785;52.556;13.430;2022-09-17T15:34:21;99687.19;;;15.45;100.00
27294;BME280;14785;52.556;13.430;2022-09-17T15:37:25;99687.69;;;14.83;100.00
27294;BME280;14785;52.556;13.430;2022-09-17T15:39:52;99685.13;;;15.47;100.00
27294;BME280;14785;52.556;13.430;2022-09-17T15:42:22;99684.38;;;15.01;100.00
27294;BME280;14785;52.556;13.430;2022-09-17T15:44:50;99704.16;;;14.87;100.00
27294;BME280;14785;52.556;13.430;2022-09-17T15:47:36;99674.84;;;14.07;100.00
27294;BME280;14785;52.556;13.430;2022-09-17T15:50:14;99703.00;;;14.03;100.00
27294;BME280;14785;52.556;13.430;2022-09-17T15:52:41;99689.25;;;14.19;100.00
27294;BME280;14785;52.556;13.430;2022-09-17T15:55:28;99673.28;;;14.58;100.00
27294;BME280;14785;52.556;13.430;2022-09-17T15:57:55;99672.00;;;15.06;100.00
27294;BME280;14785;52.556;13.430;2022-09-17T16:00:21;99682.31;;;14.25;100.00